»·PEaware :: GJFLY LIME-LIPT

GJFLY :: LIME-LIPT

FLIGHT INFORMATION

Flight Status: Arrived
Operator: Unknown
More flights by this operator :: More flights under this callsign
Pilot: Anonymous 8799 (8799)
Aircraft: CESSNA 208 CARAVAN
(C208)
More flights by this aircraft type
Origin: LIME Orio Al Serio
Italy
Destination: LIPT Vicenza Mil
Italy
More flights between these airports :: More routes between these airports
Route: FSE RUN ITALY
File this flight plan on PilotEdge
Remarks:
Altitude:
(Current/Filed)
7,500ft
Speed:
(Current/Filed)
160kts
Departed: 23-Aug-16 04:44 PM
Arrived: 23-Aug-16 05:16 PM
Distance/Time
Traveled:
77nm/0:32
Distance/Time
To Go:
Arrived

Flight Plot

Page will automatically refresh every two minutes.


Map Options




Map Legend


Flown Route
Filed Route
Departure Airport
Arrival Airport
Navaid (VOR, NDB)
Fix

Horizontal Profiles

Position Reports

Time Latitude Longitude Heading Altitude Ground
Speed
23-Aug-16 16:23 45.666748 9.699645 316 782ft 0kts
23-Aug-16 16:24 45.666748 9.699645 316 782ft 0kts
23-Aug-16 16:25 45.666748 9.699645 316 782ft 0kts
23-Aug-16 16:26 45.666748 9.699645 316 782ft 0kts
23-Aug-16 16:27 45.666748 9.699645 316 782ft 0kts
23-Aug-16 16:28 45.666748 9.699645 316 782ft 0kts
23-Aug-16 16:29 45.666748 9.699645 316 782ft 0kts
23-Aug-16 16:30 45.666748 9.699645 316 782ft 0kts
23-Aug-16 16:31 45.666748 9.699645 316 782ft 0kts
23-Aug-16 16:32 45.666748 9.699645 316 782ft 0kts
23-Aug-16 16:33 45.666748 9.699645 316 782ft 0kts
23-Aug-16 16:34 45.666748 9.699645 316 782ft 0kts
23-Aug-16 16:35 45.666748 9.699645 316 782ft 0kts
23-Aug-16 16:36 45.666748 9.699645 316 782ft 0kts
23-Aug-16 16:37 45.667370 9.698859 304 782ft 9kts
23-Aug-16 16:38 45.668793 9.694345 287 782ft 10kts
23-Aug-16 16:39 45.669615 9.689983 283 782ft 15kts
23-Aug-16 16:40 45.670901 9.690520 101 782ft 0kts
23-Aug-16 16:41 45.670783 9.691105 106 782ft 6kts
23-Aug-16 16:42 45.662656 9.728642 97 1754ft 131kts
23-Aug-16 16:43 45.663075 9.774823 26 3166ft 151kts
23-Aug-16 16:44 45.682036 9.812347 119 3909ft 174kts
23-Aug-16 16:45 45.668222 9.878622 97 4595ft 176kts
23-Aug-16 16:46 45.663211 9.948335 93 5288ft 175kts
23-Aug-16 16:47 45.659657 10.016206 93 5964ft 175kts
23-Aug-16 16:48 45.656148 10.085625 93 6657ft 174kts
23-Aug-16 16:49 45.652639 10.154780 93 7351ft 173kts
23-Aug-16 16:50 45.648939 10.226703 93 7519ft 189kts
23-Aug-16 16:51 45.644987 10.303094 93 7519ft 193kts
23-Aug-16 16:52 45.641630 10.366861 93 7518ft 193kts
23-Aug-16 16:53 45.637651 10.442115 93 7517ft 183kts
23-Aug-16 16:54 45.633111 10.526174 93 7519ft 180kts
23-Aug-16 16:55 45.629855 10.585470 93 7518ft 180kts
23-Aug-16 16:56 45.625915 10.656916 94 7519ft 180kts
23-Aug-16 16:57 45.622213 10.728039 93 7519ft 180kts
23-Aug-16 16:58 45.618237 10.799233 94 7519ft 180kts
23-Aug-16 16:59 45.614518 10.870539 93 7519ft 180kts
23-Aug-16 17:00 45.610511 10.942053 93 7519ft 180kts
23-Aug-16 17:01 45.606356 11.013421 93 7519ft 180kts
23-Aug-16 17:02 45.602163 11.084745 94 7519ft 180kts
23-Aug-16 17:03 45.597902 11.156120 94 7519ft 180kts
23-Aug-16 17:04 45.593619 11.227467 94 7519ft 180kts
23-Aug-16 17:05 45.589244 11.299470 94 7254ft 191kts
23-Aug-16 17:06 45.584486 11.377006 94 6549ft 197kts
23-Aug-16 17:07 45.579628 11.455096 93 5844ft 197kts
23-Aug-16 17:08 45.574713 11.533334 93 5135ft 197kts
23-Aug-16 17:09 45.570058 11.611198 93 4428ft 196kts
23-Aug-16 17:10 45.590027 11.661876 344 3676ft 168kts
23-Aug-16 17:11 45.595346 11.602221 278 2753ft 177kts
23-Aug-16 17:12 45.615577 11.539717 270 1446ft 169kts
23-Aug-16 17:13 45.580002 11.530140 177 160ft 126kts
23-Aug-16 17:14 45.569365 11.528947 349 133ft 10kts
23-Aug-16 17:15 45.571755 11.527533 345 133ft 0kts
23-Aug-16 17:16 45.571755 11.527533 345 133ft 0kts
23-Aug-16 17:17 45.571755 11.527533 345 133ft 0kts
23-Aug-16 17:18 45.607117 11.527145 175 1063ft 153kts
23-Aug-16 17:19 45.571063 11.530378 183 133ft 51kts
23-Aug-16 17:20 45.570652 11.528899 359 133ft 14kts
23-Aug-16 17:21 45.571755 11.527533 345 133ft 0kts
23-Aug-16 17:22 45.571755 11.527533 345 133ft 0kts
23-Aug-16 17:23 45.571755 11.527533 345 133ft 0kts

Navigation Log

Ident Type
1. LIME Airport
2. FSE Navaid
3. ITALY Fix
4. LIPT Airport